<?xml version="1.0" encoding="UTF-8" standalone="no" ?>
<gpx xmlns="http://www.topografix.com/GPX/1/1" xmlns:xsi="http://www.w3.org/2001/XMLSchema-instance" xsi:schemaLocation="http://www.topografix.com/GPX/1/1 http://www.topografix.com/GPX/1/1/gpx.xsd" version="1.1" creator="VisuGPX - https://www.visugpx.com">
  <metadata>
    <name>luzech 6 descentes</name>
    <desc><![CDATA[parcours typé enduro avec de belles descentes]]></desc>
  </metadata>
  <trk>
    <name><![CDATA[2014-04-01-08-18-57]]></name>
    <trkseg>
      <trkpt lat="44.47054" lon="1.27754">
        <ele>208.969</ele>
        <time>2014-04-01T08:43:49Z</time>
      </trkpt>
      <trkpt lat="44.47059" lon="1.27757">
        <ele>207.286</ele>
        <time>2014-04-01T08:43:51Z</time>
      </trkpt>
      <trkpt lat="44.47064" lon="1.27763">
        <ele>204.971</ele>
        <time>2014-04-01T08:43:53Z</time>
      </trkpt>
      <trkpt lat="44.47085" lon="1.27778">
        <ele>198.535</ele>
        <time>2014-04-01T08:43:58Z</time>
      </trkpt>
      <trkpt lat="44.47095" lon="1.27783">
        <ele>195.8</ele>
        <time>2014-04-01T08:44:00Z</time>
      </trkpt>
      <trkpt lat="44.47103" lon="1.2779">
        <ele>192.963</ele>
        <time>2014-04-01T08:44:02Z</time>
      </trkpt>
      <trkpt lat="44.47122" lon="1.27796">
        <ele>188.381</ele>
        <time>2014-04-01T08:44:06Z</time>
      </trkpt>
      <trkpt lat="44.47137" lon="1.27808">
        <ele>184.416</ele>
        <time>2014-04-01T08:44:10Z</time>
      </trkpt>
      <trkpt lat="44.47143" lon="1.27814">
        <ele>182.486</ele>
        <time>2014-04-01T08:44:12Z</time>
      </trkpt>
      <trkpt lat="44.4715" lon="1.27839">
        <ele>177.286</ele>
        <time>2014-04-01T08:44:17Z</time>
      </trkpt>
      <trkpt lat="44.47157" lon="1.27858">
        <ele>173.049</ele>
        <time>2014-04-01T08:44:21Z</time>
      </trkpt>
      <trkpt lat="44.47154" lon="1.27875">
        <ele>168.687</ele>
        <time>2014-04-01T08:44:25Z</time>
      </trkpt>
      <trkpt lat="44.47154" lon="1.27892">
        <ele>162.102</ele>
        <time>2014-04-01T08:44:31Z</time>
      </trkpt>
      <trkpt lat="44.47158" lon="1.27903">
        <ele>158.196</ele>
        <time>2014-04-01T08:44:34Z</time>
      </trkpt>
      <trkpt lat="44.47162" lon="1.2791">
        <ele>155.665</ele>
        <time>2014-04-01T08:44:36Z</time>
      </trkpt>
      <trkpt lat="44.47165" lon="1.27917">
        <ele>153.16</ele>
        <time>2014-04-01T08:44:38Z</time>
      </trkpt>
      <trkpt lat="44.47173" lon="1.27928">
        <ele>149.948</ele>
        <time>2014-04-01T08:44:41Z</time>
      </trkpt>
      <trkpt lat="44.47189" lon="1.2795">
        <ele>144.567</ele>
        <time>2014-04-01T08:44:46Z</time>
      </trkpt>
      <trkpt lat="44.47203" lon="1.27943">
        <ele>141.518</ele>
        <time>2014-04-01T08:44:49Z</time>
      </trkpt>
      <trkpt lat="44.47221" lon="1.27942">
        <ele>136.466</ele>
        <time>2014-04-01T08:44:53Z</time>
      </trkpt>
      <trkpt lat="44.47226" lon="1.27941">
        <ele>135.436</ele>
        <time>2014-04-01T08:44:54Z</time>
      </trkpt>
      <trkpt lat="44.47244" lon="1.27939">
        <ele>132.949</ele>
        <time>2014-04-01T08:44:57Z</time>
      </trkpt>
      <trkpt lat="44.47259" lon="1.2794">
        <ele>130.587</ele>
        <time>2014-04-01T08:45:01Z</time>
      </trkpt>
      <trkpt lat="44.47267" lon="1.2793">
        <ele>129.878</ele>
        <time>2014-04-01T08:45:04Z</time>
      </trkpt>
      <trkpt lat="44.47279" lon="1.27929">
        <ele>126.278</ele>
        <time>2014-04-01T08:45:09Z</time>
      </trkpt>
      <trkpt lat="44.47278" lon="1.27944">
        <ele>124.758</ele>
        <time>2014-04-01T08:45:12Z</time>
      </trkpt>
      <trkpt lat="44.47275" lon="1.27971">
        <ele>126.22</ele>
        <time>2014-04-01T08:45:16Z</time>
      </trkpt>
      <trkpt lat="44.47271" lon="1.27989">
        <ele>125.019</ele>
        <time>2014-04-01T08:45:19Z</time>
      </trkpt>
      <trkpt lat="44.47265" lon="1.28008">
        <ele>123.208</ele>
        <time>2014-04-01T08:45:23Z</time>
      </trkpt>
      <trkpt lat="44.47267" lon="1.28019">
        <ele>122.089</ele>
        <time>2014-04-01T08:45:26Z</time>
      </trkpt>
      <trkpt lat="44.47262" lon="1.28024">
        <ele>122.562</ele>
        <time>2014-04-01T08:45:30Z</time>
      </trkpt>
      <trkpt lat="44.47255" lon="1.28018">
        <ele>123.633</ele>
        <time>2014-04-01T08:45:35Z</time>
      </trkpt>
      <trkpt lat="44.47242" lon="1.2801">
        <ele>125.363</ele>
        <time>2014-04-01T08:45:42Z</time>
      </trkpt>
      <trkpt lat="44.47225" lon="1.28003">
        <ele>127.583</ele>
        <time>2014-04-01T08:45:50Z</time>
      </trkpt>
      <trkpt lat="44.47208" lon="1.27997">
        <ele>129.546</ele>
        <time>2014-04-01T08:45:58Z</time>
      </trkpt>
      <trkpt lat="44.47195" lon="1.27994">
        <ele>132.146</ele>
        <time>2014-04-01T08:46:04Z</time>
      </trkpt>
      <trkpt lat="44.47179" lon="1.27988">
        <ele>134.584</ele>
        <time>2014-04-01T08:46:12Z</time>
      </trkpt>
      <trkpt lat="44.47161" lon="1.27978">
        <ele>137.534</ele>
        <time>2014-04-01T08:46:21Z</time>
      </trkpt>
      <trkpt lat="44.47144" lon="1.27967">
        <ele>139.803</ele>
        <time>2014-04-01T08:46:30Z</time>
      </trkpt>
      <trkpt lat="44.47131" lon="1.27956">
        <ele>140.902</ele>
        <time>2014-04-01T08:46:38Z</time>
      </trkpt>
      <trkpt lat="44.47116" lon="1.27948">
        <ele>143.103</ele>
        <time>2014-04-01T08:46:46Z</time>
      </trkpt>
      <trkpt lat="44.47101" lon="1.27949">
        <ele>144.376</ele>
        <time>2014-04-01T08:46:53Z</time>
      </trkpt>
      <trkpt lat="44.47093" lon="1.27959">
        <ele>144.795</ele>
        <time>2014-04-01T08:46:58Z</time>
      </trkpt>
      <trkpt lat="44.47094" lon="1.27977">
        <ele>145.137</ele>
        <time>2014-04-01T08:47:04Z</time>
      </trkpt>
      <trkpt lat="44.47105" lon="1.28004">
        <ele>145.512</ele>
        <time>2014-04-01T08:47:14Z</time>
      </trkpt>
      <trkpt lat="44.47114" lon="1.28025">
        <ele>145.422</ele>
        <time>2014-04-01T08:47:22Z</time>
      </trkpt>
      <trkpt lat="44.47121" lon="1.28051">
        <ele>145.798</ele>
        <time>2014-04-01T08:47:31Z</time>
      </trkpt>
      <trkpt lat="44.47125" lon="1.2807">
        <ele>146.703</ele>
        <time>2014-04-01T08:47:38Z</time>
      </trkpt>
      <trkpt lat="44.47121" lon="1.28088">
        <ele>147.762</ele>
        <time>2014-04-01T08:47:45Z</time>
      </trkpt>
      <trkpt lat="44.47109" lon="1.28093">
        <ele>148.646</ele>
        <time>2014-04-01T08:47:52Z</time>
      </trkpt>
      <trkpt lat="44.47089" lon="1.28097">
        <ele>150.243</ele>
        <time>2014-04-01T08:48:02Z</time>
      </trkpt>
      <trkpt lat="44.47069" lon="1.28104">
        <ele>151.976</ele>
        <time>2014-04-01T08:48:13Z</time>
      </trkpt>
      <trkpt lat="44.47053" lon="1.28107">
        <ele>153.346</ele>
        <time>2014-04-01T08:48:22Z</time>
      </trkpt>
      <trkpt lat="44.47033" lon="1.28105">
        <ele>154.554</ele>
        <time>2014-04-01T08:48:32Z</time>
      </trkpt>
      <trkpt lat="44.47017" lon="1.28104">
        <ele>156.504</ele>
        <time>2014-04-01T08:48:40Z</time>
      </trkpt>
      <trkpt lat="44.46996" lon="1.28104">
        <ele>159.027</ele>
        <time>2014-04-01T08:48:51Z</time>
      </trkpt>
      <trkpt lat="44.46978" lon="1.28102">
        <ele>161.665</ele>
        <time>2014-04-01T08:49:01Z</time>
      </trkpt>
      <trkpt lat="44.46963" lon="1.28102">
        <ele>163.848</ele>
        <time>2014-04-01T08:49:09Z</time>
      </trkpt>
      <trkpt lat="44.46947" lon="1.28104">
        <ele>166.262</ele>
        <time>2014-04-01T08:49:18Z</time>
      </trkpt>
      <trkpt lat="44.4693" lon="1.28104">
        <ele>166.114</ele>
        <time>2014-04-01T08:49:28Z</time>
      </trkpt>
      <trkpt lat="44.46913" lon="1.28104">
        <ele>166.225</ele>
        <time>2014-04-01T08:49:37Z</time>
      </trkpt>
      <trkpt lat="44.46899" lon="1.28105">
        <ele>167.652</ele>
        <time>2014-04-01T08:49:45Z</time>
      </trkpt>
      <trkpt lat="44.46884" lon="1.28108">
        <ele>169.442</ele>
        <time>2014-04-01T08:49:54Z</time>
      </trkpt>
      <trkpt lat="44.46872" lon="1.28112">
        <ele>171.503</ele>
        <time>2014-04-01T08:50:01Z</time>
      </trkpt>
      <trkpt lat="44.46859" lon="1.28116">
        <ele>171.736</ele>
        <time>2014-04-01T08:50:09Z</time>
      </trkpt>
      <trkpt lat="44.46839" lon="1.28121">
        <ele>173.378</ele>
        <time>2014-04-01T08:50:21Z</time>
      </trkpt>
      <trkpt lat="44.46827" lon="1.28117">
        <ele>175.308</ele>
        <time>2014-04-01T08:50:28Z</time>
      </trkpt>
      <trkpt lat="44.46812" lon="1.28111">
        <ele>177.565</ele>
        <time>2014-04-01T08:50:37Z</time>
      </trkpt>
      <trkpt lat="44.46801" lon="1.28109">
        <ele>179.897</ele>
        <time>2014-04-01T08:50:44Z</time>
      </trkpt>
      <trkpt lat="44.46781" lon="1.28106">
        <ele>182.842</ele>
        <time>2014-04-01T08:50:55Z</time>
      </trkpt>
      <trkpt lat="44.46761" lon="1.28101">
        <ele>184.532</ele>
        <time>2014-04-01T08:51:06Z</time>
      </trkpt>
      <trkpt lat="44.46746" lon="1.281">
        <ele>185.542</ele>
        <time>2014-04-01T08:51:14Z</time>
      </trkpt>
      <trkpt lat="44.46731" lon="1.28101">
        <ele>186.214</ele>
        <time>2014-04-01T08:51:22Z</time>
      </trkpt>
      <trkpt lat="44.46714" lon="1.28099">
        <ele>187.852</ele>
        <time>2014-04-01T08:51:31Z</time>
      </trkpt>
      <trkpt lat="44.467" lon="1.28096">
        <ele>188.116</ele>
        <time>2014-04-01T08:51:38Z</time>
      </trkpt>
      <trkpt lat="44.46685" lon="1.28091">
        <ele>189.272</ele>
        <time>2014-04-01T08:51:46Z</time>
      </trkpt>
      <trkpt lat="44.46672" lon="1.28084">
        <ele>192.268</ele>
        <time>2014-04-01T08:51:55Z</time>
      </trkpt>
      <trkpt lat="44.46664" lon="1.28075">
        <ele>193.831</ele>
        <time>2014-04-01T08:52:02Z</time>
      </trkpt>
      <trkpt lat="44.46654" lon="1.2807">
        <ele>195.868</ele>
        <time>2014-04-01T08:52:09Z</time>
      </trkpt>
      <trkpt lat="44.46643" lon="1.28067">
        <ele>197.268</ele>
        <time>2014-04-01T08:52:16Z</time>
      </trkpt>
      <trkpt lat="44.4663" lon="1.28071">
        <ele>198.816</ele>
        <time>2014-04-01T08:52:24Z</time>
      </trkpt>
      <trkpt lat="44.46617" lon="1.28074">
        <ele>196.345</ele>
        <time>2014-04-01T08:52:33Z</time>
      </trkpt>
      <trkpt lat="44.46602" lon="1.28079">
        <ele>195.104</ele>
        <time>2014-04-01T08:52:43Z</time>
      </trkpt>
      <trkpt lat="44.4659" lon="1.28084">
        <ele>194.52</ele>
        <time>2014-04-01T08:52:51Z</time>
      </trkpt>
      <trkpt lat="44.46577" lon="1.28082">
        <ele>195.568</ele>
        <time>2014-04-01T08:53:00Z</time>
      </trkpt>
      <trkpt lat="44.46565" lon="1.28076">
        <ele>198.951</ele>
        <time>2014-04-01T08:53:08Z</time>
      </trkpt>
      <trkpt lat="44.4655" lon="1.2807">
        <ele>202.145</ele>
        <time>2014-04-01T08:53:18Z</time>
      </trkpt>
      <trkpt lat="44.46539" lon="1.28065">
        <ele>202.335</ele>
        <time>2014-04-01T08:53:25Z</time>
      </trkpt>
      <trkpt lat="44.46528" lon="1.2806">
        <ele>202.33</ele>
        <time>2014-04-01T08:53:32Z</time>
      </trkpt>
      <trkpt lat="44.46513" lon="1.28054">
        <ele>204.776</ele>
        <time>2014-04-01T08:53:42Z</time>
      </trkpt>
      <trkpt lat="44.465" lon="1.28049">
        <ele>205.01</ele>
        <time>2014-04-01T08:53:51Z</time>
      </trkpt>
      <trkpt lat="44.46487" lon="1.28041">
        <ele>204.623</ele>
        <time>2014-04-01T08:54:00Z</time>
      </trkpt>
      <trkpt lat="44.46471" lon="1.28032">
        <ele>204.5</ele>
        <time>2014-04-01T08:54:11Z</time>
      </trkpt>
      <trkpt lat="44.46456" lon="1.28021">
        <ele>204.68</ele>
        <time>2014-04-01T08:54:22Z</time>
      </trkpt>
      <trkpt lat="44.4644" lon="1.28009">
        <ele>205.836</ele>
        <time>2014-04-01T08:54:33Z</time>
      </trkpt>
      <trkpt lat="44.46423" lon="1.27997">
        <ele>207.049</ele>
        <time>2014-04-01T08:54:45Z</time>
      </trkpt>
      <trkpt lat="44.46409" lon="1.27988">
        <ele>208.259</ele>
        <time>2014-04-01T08:54:54Z</time>
      </trkpt>
      <trkpt lat="44.46394" lon="1.27978">
        <ele>210.17</ele>
        <time>2014-04-01T08:55:04Z</time>
      </trkpt>
      <trkpt lat="44.46378" lon="1.27968">
        <ele>212.07</ele>
        <time>2014-04-01T08:55:15Z</time>
      </trkpt>
      <trkpt lat="44.46367" lon="1.27955">
        <ele>213.269</ele>
        <time>2014-04-01T08:55:24Z</time>
      </trkpt>
      <trkpt lat="44.46355" lon="1.27938">
        <ele>214.041</ele>
        <time>2014-04-01T08:55:35Z</time>
      </trkpt>
      <trkpt lat="44.46345" lon="1.27923">
        <ele>214.179</ele>
        <time>2014-04-01T08:55:45Z</time>
      </trkpt>
      <trkpt lat="44.46336" lon="1.27911">
        <ele>215.062</ele>
        <time>2014-04-01T08:55:53Z</time>
      </trkpt>
      <trkpt lat="44.46324" lon="1.27898">
        <ele>217.225</ele>
        <time>2014-04-01T08:56:03Z</time>
      </trkpt>
      <trkpt lat="44.46312" lon="1.27888">
        <ele>219.019</ele>
        <time>2014-04-01T08:56:12Z</time>
      </trkpt>
      <trkpt lat="44.463" lon="1.27879">
        <ele>220.519</ele>
        <time>2014-04-01T08:56:21Z</time>
      </trkpt>
      <trkpt lat="44.46284" lon="1.27865">
        <ele>222.484</ele>
        <time>2014-04-01T08:56:32Z</time>
      </trkpt>
      <trkpt lat="44.46275" lon="1.27854">
        <ele>223.314</ele>
        <time>2014-04-01T08:56:39Z</time>
      </trkpt>
      <trkpt lat="44.46266" lon="1.27841">
        <ele>224.162</ele>
        <time>2014-04-01T08:56:47Z</time>
      </trkpt>
      <trkpt lat="44.46257" lon="1.27825">
        <ele>225.67</ele>
        <time>2014-04-01T08:56:56Z</time>
      </trkpt>
      <trkpt lat="44.46247" lon="1.27808">
        <ele>226.994</ele>
        <time>2014-04-01T08:57:06Z</time>
      </trkpt>
      <trkpt lat="44.46238" lon="1.27792">
        <ele>230.269</ele>
        <time>2014-04-01T08:57:15Z</time>
      </trkpt>
      <trkpt lat="44.46229" lon="1.27775">
        <ele>232.769</ele>
        <time>2014-04-01T08:57:25Z</time>
      </trkpt>
      <trkpt lat="44.46219" lon="1.27758">
        <ele>233.834</ele>
        <time>2014-04-01T08:57:35Z</time>
      </trkpt>
      <trkpt lat="44.46209" lon="1.27742">
        <ele>235.014</ele>
        <time>2014-04-01T08:57:45Z</time>
      </trkpt>
      <trkpt lat="44.46199" lon="1.27727">
        <ele>236.766</ele>
        <time>2014-04-01T08:57:54Z</time>
      </trkpt>
      <trkpt lat="44.46189" lon="1.27712">
        <ele>237.598</ele>
        <time>2014-04-01T08:58:03Z</time>
      </trkpt>
      <trkpt lat="44.46179" lon="1.27698">
        <ele>239.044</ele>
        <time>2014-04-01T08:58:11Z</time>
      </trkpt>
      <trkpt lat="44.46168" lon="1.2768">
        <ele>240.182</ele>
        <time>2014-04-01T08:58:21Z</time>
      </trkpt>
      <trkpt lat="44.46159" lon="1.27663">
        <ele>241.273</ele>
        <time>2014-04-01T08:58:30Z</time>
      </trkpt>
      <trkpt lat="44.4615" lon="1.27649">
        <ele>242.318</ele>
        <time>2014-04-01T08:58:38Z</time>
      </trkpt>
      <trkpt lat="44.46141" lon="1.27633">
        <ele>244.092</ele>
        <time>2014-04-01T08:58:47Z</time>
      </trkpt>
      <trkpt lat="44.4613" lon="1.27617">
        <ele>244.458</ele>
        <time>2014-04-01T08:58:56Z</time>
      </trkpt>
      <trkpt lat="44.46117" lon="1.27599">
        <ele>245.362</ele>
        <time>2014-04-01T08:59:06Z</time>
      </trkpt>
      <trkpt lat="44.46104" lon="1.27583">
        <ele>247.313</ele>
        <time>2014-04-01T08:59:16Z</time>
      </trkpt>
      <trkpt lat="44.46096" lon="1.2757">
        <ele>247.468</ele>
        <time>2014-04-01T08:59:23Z</time>
      </trkpt>
      <trkpt lat="44.46086" lon="1.27552">
        <ele>246.06</ele>
        <time>2014-04-01T08:59:32Z</time>
      </trkpt>
      <trkpt lat="44.46072" lon="1.27538">
        <ele>247.407</ele>
        <time>2014-04-01T08:59:41Z</time>
      </trkpt>
      <trkpt lat="44.4607" lon="1.27535">
        <ele>247.287</ele>
        <time>2014-04-01T08:59:43Z</time>
      </trkpt>
      <trkpt lat="44.46063" lon="1.27526">
        <ele>247.648</ele>
        <time>2014-04-01T08:59:50Z</time>
      </trkpt>
      <trkpt lat="44.46062" lon="1.27526">
        <ele>247.767</ele>
        <time>2014-04-01T08:59:52Z</time>
      </trkpt>
    </trkseg>
  </trk>
</gpx>